Time;durP1;ratioP1;P1;durP2;ratioP2;P2;SDS_P1;SDS_P2;PMS_P1;PMS_P2;Temp;Humidity;BMP_temperature;BMP_pressure;BME280_temperature;BME280_humidity;BME280_pressure;Samples;Min_cycle;Max_cycle;Signal;HPM_P1;HPM_P2
2023/12/29 00:01:50;;;;;;;;;;;;;;;12.06;55.30;98744.91;67636;1281;1016312;-72
2023/12/29 00:04:53;;;;;;;;;;;;;;;11.88;55.97;98740.66;67590;1281;1018860;-72
2023/12/29 00:07:55;;;;;;;;;;;;;;;11.81;56.48;98740.02;67641;1281;1016468;-72
2023/12/29 00:10:58;;;;;;;;;;;;;;;11.89;56.47;98733.58;67637;1281;1016482;-72
2023/12/29 00:14:01;;;;;;;;;;;;;;;12.03;56.02;98726.52;67578;1281;1016583;-70
2023/12/29 00:17:03;;;;;;;;;;;;;;;12.19;55.58;98721.88;67629;1281;1016713;-68
2023/12/29 00:20:07;;;;;;;;;;;;;;;12.45;55.00;98708.75;67646;1281;1016565;-71
2023/12/29 00:23:10;;;;;;;;;;;;;;;12.69;54.28;98708.06;67677;1281;1016931;-72
2023/12/29 00:26:12;;;;;;;;;;;;;;;12.71;54.23;98707.72;67628;1281;1016441;-69
2023/12/29 00:29:15;;;;;;;;;;;;;;;12.76;54.13;98705.84;67604;1281;1016483;-70
2023/12/29 00:32:18;;;;;;;;;;;;;;;12.78;53.91;98706.00;67647;1281;1016437;-73
2023/12/29 00:35:20;;;;;;;;;;;;;;;12.69;54.17;98708.05;67636;1281;1016289;-72
2023/12/29 00:38:24;;;;;;;;;;;;;;;12.67;54.27;98704.16;67662;1281;1016402;-68
2023/12/29 00:41:27;;;;;;;;;;;;;;;12.65;54.28;98703.23;67640;1281;1015744;-73
2023/12/29 00:44:29;;;;;;;;;;;;;;;12.66;54.35;98705.80;67605;1281;1016491;-70
2023/12/29 00:47:32;;;;;;;;;;;;;;;12.70;54.16;98696.97;67679;1281;1018069;-70
2023/12/29 00:50:35;;;;;;;;;;;;;;;12.57;54.32;98700.69;67622;1281;1016508;-73
2023/12/29 00:53:37;;;;;;;;;;;;;;;12.59;54.01;98701.58;67611;1281;1016554;-72
2023/12/29 00:56:40;;;;;;;;;;;;;;;12.30;54.72;98708.04;67645;1281;1018658;-73
2023/12/29 00:59:43;;;;;;;;;;;;;;;12.13;55.45;98704.81;67665;1281;1016466;-72
2023/12/29 01:02:46;;;;;;;;;;;;;;;12.23;55.29;98707.41;67666;1281;1016191;-72
2023/12/29 01:05:49;;;;;;;;;;;;;;;12.26;55.37;98707.73;67634;1281;1016628;-73
2023/12/29 01:08:52;;;;;;;;;;;;;;;12.13;55.87;98703.90;67625;1281;1016494;-71
2023/12/29 01:11:54;;;;;;;;;;;;;;;12.04;56.48;98704.56;67659;1281;1016293;-73
2023/12/29 01:14:57;;;;;;;;;;;;;;;12.17;56.05;98703.44;67660;1281;1016356;-73
2023/12/29 01:18:00;;;;;;;;;;;;;;;12.22;56.03;98698.23;67622;1281;1018830;-72
2023/12/29 01:21:02;;;;;;;;;;;;;;;12.23;56.04;98697.98;67652;1281;1017193;-68
2023/12/29 01:24:06;;;;;;;;;;;;;;;12.19;56.41;98699.85;67683;1281;1018515;-71
2023/12/29 01:27:09;;;;;;;;;;;;;;;12.23;56.47;98693.08;67656;1281;1016476;-72
2023/12/29 01:30:12;;;;;;;;;;;;;;;12.22;56.65;98691.94;67621;1281;1016869;-67
2023/12/29 01:33:15;;;;;;;;;;;;;;;12.21;56.91;98693.02;67653;1281;1016363;-72
2023/12/29 01:36:17;;;;;;;;;;;;;;;12.27;56.81;98690.47;67657;1281;1016460;-72
2023/12/29 01:39:20;;;;;;;;;;;;;;;12.31;57.04;98682.17;67613;1281;1016401;-72
2023/12/29 01:42:24;;;;;;;;;;;;;;;12.46;56.59;98673.89;67592;1281;1016454;-71
2023/12/29 01:45:27;;;;;;;;;;;;;;;12.68;55.94;98671.82;67657;1281;1016572;-72
2023/12/29 01:48:29;;;;;;;;;;;;;;;12.74;55.76;98668.60;67602;1281;1016508;-73
2023/12/29 01:51:32;;;;;;;;;;;;;;;12.76;55.72;98669.84;67587;1281;1016455;-69
2023/12/29 01:54:35;;;;;;;;;;;;;;;12.76;55.62;98664.93;67633;1281;1016514;-72
2023/12/29 01:57:38;;;;;;;;;;;;;;;12.69;55.91;98661.21;67625;1281;1016481;-72
2023/12/29 02:00:41;;;;;;;;;;;;;;;12.56;56.18;98665.54;67646;1281;1016307;-71
2023/12/29 02:03:44;;;;;;;;;;;;;;;12.55;56.01;98663.98;67640;1281;1018518;-72
2023/12/29 02:06:46;;;;;;;;;;;;;;;12.49;56.03;98663.16;67596;1281;1018388;-72
2023/12/29 02:09:51;;;;;;;;;;;;;;;12.53;55.83;98657.16;67623;1281;1016594;-73
2023/12/29 02:12:57;;;;;;;;;;;;;;;12.44;55.89;98656.38;67678;1281;1015734;-73
2023/12/29 02:16:00;;;;;;;;;;;;;;;12.31;56.42;98650.95;67657;1281;1016366;-73
2023/12/29 02:19:02;;;;;;;;;;;;;;;12.23;56.76;98647.83;67625;1281;1016274;-70
2023/12/29 02:22:05;;;;;;;;;;;;;;;12.30;56.62;98642.63;67654;1281;1016336;-72
2023/12/29 02:25:09;;;;;;;;;;;;;;;12.32;56.51;98642.85;66315;1281;2003719;-73
2023/12/29 02:28:12;;;;;;;;;;;;;;;12.27;56.68;98636.86;50333;1281;2016596;-72
2023/12/29 02:31:16;;;;;;;;;;;;;;;12.25;56.79;98632.96;49743;1281;2016383;-72
2023/12/29 02:34:20;;;;;;;;;;;;;;;12.31;56.58;98630.61;50470;1281;2018253;-71
2023/12/29 02:37:23;;;;;;;;;;;;;;;12.41;56.29;98633.27;50495;1281;2016484;-72
2023/12/29 02:40:26;;;;;;;;;;;;;;;12.32;56.46;98634.95;50467;1281;2016361;-68
2023/12/29 02:43:29;;;;;;;;;;;;;;;12.22;56.87;98637.57;51856;1281;2015463;-73
2023/12/29 02:46:32;;;;;;;;;;;;;;;12.17;57.34;98630.23;48976;1281;2016349;-66
2023/12/29 02:49:35;;;;;;;;;;;;;;;12.22;57.37;98622.85;49588;1281;2016339;-72
2023/12/29 02:52:38;;;;;;;;;;;;;;;12.42;56.75;98620.69;52554;1281;2005324;-73
2023/12/29 02:55:41;;;;;;;;;;;;;;;12.48;56.52;98617.33;52608;1281;2016386;-73
2023/12/29 02:58:45;;;;;;;;;;;;;;;12.44;56.72;98610.61;52592;1281;2016265;-73
2023/12/29 03:01:48;;;;;;;;;;;;;;;12.32;57.23;98601.06;51852;1281;2018116;-71
2023/12/29 03:04:51;;;;;;;;;;;;;;;12.28;57.37;98599.75;50346;1281;2016276;-72
2023/12/29 03:07:53;;;;;;;;;;;;;;;12.06;58.48;98600.84;49571;1281;2016510;-73
2023/12/29 03:10:56;;;;;;;;;;;;;;;12.01;59.03;98606.42;51099;1281;2015853;-73
2023/12/29 03:14:00;;;;;;;;;;;;;;;12.02;59.07;98600.73;48973;1281;2015814;-73
2023/12/29 03:17:03;;;;;;;;;;;;;;;12.06;59.29;98593.48;50494;1281;2016264;-69
2023/12/29 03:20:07;;;;;;;;;;;;;;;11.90;59.74;98590.69;50459;1281;2016071;-70
2023/12/29 03:23:10;;;;;;;;;;;;;;;11.91;60.05;98580.48;53348;1281;2016420;-69
2023/12/29 03:26:12;;;;;;;;;;;;;;;11.98;59.69;98584.20;51083;1281;2015762;-68
2023/12/29 03:29:16;;;;;;;;;;;;;;;12.02;59.58;98577.95;48988;1281;2016418;-73
2023/12/29 03:32:19;;;;;;;;;;;;;;;12.08;59.56;98586.98;48983;1281;2016024;-71
2023/12/29 03:35:22;;;;;;;;;;;;;;;12.11;59.52;98589.95;49592;1281;2016248;-67
2023/12/29 03:38:25;;;;;;;;;;;;;;;12.14;59.89;98583.78;61815;1281;2015535;-73
2023/12/29 03:41:27;;;;;;;;;;;;;;;12.15;59.56;98576.52;67653;1281;1016418;-66
2023/12/29 03:44:30;;;;;;;;;;;;;;;12.04;59.79;98581.38;67655;1281;1019880;-66
2023/12/29 03:47:32;;;;;;;;;;;;;;;12.04;59.72;98582.05;67601;1281;1016367;-67
2023/12/29 03:50:35;;;;;;;;;;;;;;;12.06;59.60;98586.66;67638;1281;1016459;-73
2023/12/29 03:53:38;;;;;;;;;;;;;;;12.03;59.63;98587.55;67712;1281;1016417;-72
2023/12/29 03:56:40;;;;;;;;;;;;;;;11.92;59.91;98589.33;67627;1281;1018333;-73
2023/12/29 03:59:43;;;;;;;;;;;;;;;11.96;59.67;98592.02;67633;1281;1016392;-71
2023/12/29 04:02:45;;;;;;;;;;;;;;;11.99;59.34;98589.58;67655;1281;1017740;-71
2023/12/29 04:05:48;;;;;;;;;;;;;;;11.90;59.80;98584.74;67648;1281;1016183;-70
2023/12/29 04:08:51;;;;;;;;;;;;;;;11.81;60.42;98584.84;67643;1281;1016329;-72
2023/12/29 04:11:53;;;;;;;;;;;;;;;11.79;60.29;98587.47;67609;1281;1016282;-67
2023/12/29 04:14:56;;;;;;;;;;;;;;;11.82;59.81;98583.41;67635;1281;1016422;-71
2023/12/29 04:17:58;;;;;;;;;;;;;;;11.62;60.71;98580.88;67650;1281;1016495;-72
2023/12/29 04:21:01;;;;;;;;;;;;;;;11.61;60.45;98575.37;67646;1281;1017204;-72
2023/12/29 04:24:04;;;;;;;;;;;;;;;11.65;60.33;98578.10;67621;1281;1017280;-67
2023/12/29 04:27:06;;;;;;;;;;;;;;;11.63;60.17;98576.46;67652;1281;1016299;-67
2023/12/29 04:30:09;;;;;;;;;;;;;;;11.52;60.48;98573.19;67668;1281;1016304;-71
2023/12/29 04:33:11;;;;;;;;;;;;;;;11.48;60.99;98570.27;67625;1281;1016399;-72
2023/12/29 04:36:14;;;;;;;;;;;;;;;11.56;60.83;98569.38;67613;1281;1016491;-69
2023/12/29 04:39:17;;;;;;;;;;;;;;;11.60;60.61;98567.86;67658;1281;1016399;-73
2023/12/29 04:42:19;;;;;;;;;;;;;;;11.65;60.20;98568.43;67670;1281;1015781;-73
2023/12/29 04:45:22;;;;;;;;;;;;;;;11.61;60.26;98568.86;67597;1281;1016117;-68
2023/12/29 04:48:25;;;;;;;;;;;;;;;11.47;60.92;98572.13;67667;1281;1016461;-72
2023/12/29 04:51:28;;;;;;;;;;;;;;;11.48;60.73;98564.91;67610;1281;1016610;-73
2023/12/29 04:54:31;;;;;;;;;;;;;;;11.53;60.66;98564.15;67646;1281;1020208;-70
2023/12/29 04:57:33;;;;;;;;;;;;;;;11.55;60.35;98562.52;67646;1281;1018914;-72
2023/12/29 05:00:36;;;;;;;;;;;;;;;11.49;60.60;98557.29;67644;1281;1015924;-72
2023/12/29 05:03:39;;;;;;;;;;;;;;;11.38;60.84;98555.92;67601;1281;1016132;-72
2023/12/29 05:06:42;;;;;;;;;;;;;;;11.43;60.59;98553.47;67639;1281;1016371;-72
2023/12/29 05:09:44;;;;;;;;;;;;;;;11.44;60.40;98559.58;67614;1281;1016491;-70
2023/12/29 05:12:47;;;;;;;;;;;;;;;11.28;60.75;98565.52;67601;1281;1016499;-72
2023/12/29 05:15:50;;;;;;;;;;;;;;;11.25;60.83;98559.09;67643;1281;1016229;-72
2023/12/29 05:18:52;;;;;;;;;;;;;;;11.25;61.24;98551.60;67596;1281;1016528;-72
2023/12/29 05:21:55;;;;;;;;;;;;;;;11.28;61.05;98551.89;67603;1281;1016168;-70
2023/12/29 05:25:00;;;;;;;;;;;;;;;11.25;61.11;98554.85;67660;1281;1016352;-72
2023/12/29 05:28:02;;;;;;;;;;;;;;;11.35;60.66;98555.77;67667;1281;1016311;-73
2023/12/29 05:31:05;;;;;;;;;;;;;;;11.35;60.87;98554.53;67624;1281;1016496;-68
2023/12/29 05:34:08;;;;;;;;;;;;;;;11.21;61.21;98550.81;67640;1281;1016489;-72
2023/12/29 05:37:10;;;;;;;;;;;;;;;11.27;60.83;98554.38;67688;1281;1016372;-72
2023/12/29 05:40:13;;;;;;;;;;;;;;;11.28;60.69;98552.05;67619;1281;1016543;-67
2023/12/29 05:43:16;;;;;;;;;;;;;;;11.30;61.02;98550.38;67659;1281;1016241;-67
2023/12/29 05:46:18;;;;;;;;;;;;;;;11.38;61.10;98549.59;67655;1281;1018313;-70
2023/12/29 05:49:21;;;;;;;;;;;;;;;11.58;60.71;98549.84;67599;1281;1016503;-72
2023/12/29 05:52:24;;;;;;;;;;;;;;;11.56;61.15;98552.61;67649;1281;1016382;-72
2023/12/29 05:55:28;;;;;;;;;;;;;;;11.62;61.18;98550.23;67663;1281;1016638;-71
2023/12/29 05:58:30;;;;;;;;;;;;;;;11.54;61.53;98547.65;67667;1281;1015965;-72
2023/12/29 06:01:33;;;;;;;;;;;;;;;11.64;61.23;98542.23;67603;1281;1016131;-65
2023/12/29 06:04:36;;;;;;;;;;;;;;;11.57;61.62;98543.79;67622;1281;1015773;-65
2023/12/29 06:07:38;;;;;;;;;;;;;;;11.80;60.91;98547.09;67663;1281;1015902;-70
2023/12/29 06:10:41;;;;;;;;;;;;;;;11.89;60.53;98556.98;67619;1281;1018603;-70
2023/12/29 06:13:44;;;;;;;;;;;;;;;11.97;60.29;98560.77;67637;1281;1018786;-72
2023/12/29 06:16:46;;;;;;;;;;;;;;;11.97;59.98;98568.86;67671;1281;1016460;-72
2023/12/29 06:19:49;;;;;;;;;;;;;;;11.88;60.54;98569.14;67594;1281;1016513;-72
2023/12/29 06:22:52;;;;;;;;;;;;;;;11.83;60.53;98567.34;67670;1281;1016309;-72
2023/12/29 06:25:54;;;;;;;;;;;;;;;11.96;60.15;98567.73;67657;1281;1017695;-72
2023/12/29 06:28:57;;;;;;;;;;;;;;;11.96;60.04;98564.90;67607;1281;1016411;-71
2023/12/29 06:32:00;;;;;;;;;;;;;;;11.99;59.93;98569.58;67652;1281;1017205;-68
2023/12/29 06:35:02;;;;;;;;;;;;;;;12.18;59.24;98564.75;67631;1281;1016478;-72
2023/12/29 06:38:05;;;;;;;;;;;;;;;12.22;58.99;98564.45;67603;1281;1016210;-70
2023/12/29 06:41:08;;;;;;;;;;;;;;;12.17;59.15;98561.13;67642;1281;1016462;-73
2023/12/29 06:44:11;;;;;;;;;;;;;;;12.31;58.69;98559.08;67655;1281;1019044;-70
2023/12/29 06:47:13;;;;;;;;;;;;;;;12.41;58.33;98560.79;67607;1281;1019377;-72
2023/12/29 06:50:16;;;;;;;;;;;;;;;12.58;57.70;98551.16;67643;1281;1016459;-73
2023/12/29 06:53:19;;;;;;;;;;;;;;;12.66;57.60;98551.30;67591;1281;1016132;-72
2023/12/29 06:56:22;;;;;;;;;;;;;;;12.69;57.84;98548.60;67592;1281;1016365;-69
2023/12/29 06:59:25;;;;;;;;;;;;;;;12.74;57.72;98544.92;67629;1281;1016504;-70
2023/12/29 07:02:28;;;;;;;;;;;;;;;12.84;57.42;98542.57;67629;1281;1016914;-68
2023/12/29 07:05:30;;;;;;;;;;;;;;;12.84;57.50;98543.61;67645;1281;1016801;-67
2023/12/29 07:08:33;;;;;;;;;;;;;;;12.89;57.44;98539.27;67602;1281;1016631;-72
2023/12/29 07:11:36;;;;;;;;;;;;;;;13.09;56.73;98541.58;67667;1281;1016486;-69
2023/12/29 07:14:39;;;;;;;;;;;;;;;13.05;56.87;98543.62;67602;1281;1015850;-73
2023/12/29 07:17:42;;;;;;;;;;;;;;;12.97;56.83;98546.66;67610;1281;1016462;-72
2023/12/29 07:20:44;;;;;;;;;;;;;;;12.90;57.26;98543.23;67662;1281;1017547;-73
2023/12/29 07:23:47;;;;;;;;;;;;;;;12.81;57.15;98535.63;67638;1281;1015936;-72
2023/12/29 07:26:50;;;;;;;;;;;;;;;12.74;57.33;98543.73;67581;1281;1018446;-68
2023/12/29 07:29:52;;;;;;;;;;;;;;;12.78;57.10;98545.34;67653;1281;1016464;-71
2023/12/29 07:32:55;;;;;;;;;;;;;;;12.61;57.61;98538.29;67629;1281;1016448;-72
2023/12/29 07:35:58;;;;;;;;;;;;;;;12.62;57.66;98533.53;67564;1281;1015944;-72
2023/12/29 07:39:00;;;;;;;;;;;;;;;12.64;57.44;98532.49;67655;1281;1016487;-72
2023/12/29 07:42:03;;;;;;;;;;;;;;;12.72;57.21;98535.20;67594;1281;1016420;-73
2023/12/29 07:45:06;;;;;;;;;;;;;;;12.64;57.54;98530.34;67610;1281;1016466;-69
2023/12/29 07:48:08;;;;;;;;;;;;;;;12.75;57.34;98536.06;67654;1281;1018375;-73
2023/12/29 07:51:11;;;;;;;;;;;;;;;12.72;57.46;98529.60;67621;1281;1016323;-70
2023/12/29 07:54:14;;;;;;;;;;;;;;;12.85;57.10;98522.02;67614;1281;1016492;-71
2023/12/29 07:57:16;;;;;;;;;;;;;;;12.85;57.20;98528.13;67671;1281;1017138;-70
2023/12/29 08:00:19;;;;;;;;;;;;;;;12.86;57.23;98530.15;67621;1281;1016072;-72
2023/12/29 08:03:22;;;;;;;;;;;;;;;12.89;57.46;98528.85;67643;1281;1016568;-70
2023/12/29 08:06:25;;;;;;;;;;;;;;;13.05;57.07;98531.88;67671;1281;1016580;-73
2023/12/29 08:09:28;;;;;;;;;;;;;;;13.32;56.45;98534.92;67606;1281;1016416;-69
2023/12/29 08:12:33;;;;;;;;;;;;;;;13.27;56.56;98526.04;67620;1281;1016127;-71
2023/12/29 08:15:37;;;;;;;;;;;;;;;13.25;56.63;98528.45;67594;1281;1018297;-73
2023/12/29 08:18:39;;;;;;;;;;;;;;;13.38;56.54;98526.80;67637;1281;1017080;-72
2023/12/29 08:21:42;;;;;;;;;;;;;;;13.41;56.86;98523.73;67596;1281;1016509;-73
2023/12/29 08:24:45;;;;;;;;;;;;;;;13.49;56.38;98522.63;67624;1281;1016409;-73
2023/12/29 08:27:47;;;;;;;;;;;;;;;13.55;56.12;98524.05;67662;1281;1016157;-72
2023/12/29 08:30:50;;;;;;;;;;;;;;;13.67;56.10;98526.80;67579;1281;1016480;-72
2023/12/29 08:33:53;;;;;;;;;;;;;;;13.78;56.05;98523.88;67634;1281;1016911;-71
2023/12/29 08:36:56;;;;;;;;;;;;;;;13.81;55.81;98532.41;67656;1281;1016001;-67
2023/12/29 08:39:59;;;;;;;;;;;;;;;13.87;55.53;98535.97;67603;1281;1016338;-70
2023/12/29 08:43:01;;;;;;;;;;;;;;;14.01;55.41;98530.30;67630;1281;1016408;-72
2023/12/29 08:46:04;;;;;;;;;;;;;;;14.18;54.72;98527.23;67589;1281;1016561;-71
2023/12/29 08:49:07;;;;;;;;;;;;;;;14.34;54.26;98531.52;67603;1281;1016428;-70
2023/12/29 08:52:10;;;;;;;;;;;;;;;14.17;54.67;98532.21;67655;1281;1019346;-73
2023/12/29 08:55:12;;;;;;;;;;;;;;;14.20;54.47;98540.59;67598;1281;1016475;-72
2023/12/29 08:58:15;;;;;;;;;;;;;;;14.24;54.56;98532.67;67575;1281;1016357;-73
2023/12/29 09:01:18;;;;;;;;;;;;;;;14.37;54.12;98531.33;67651;1281;1018118;-71
2023/12/29 09:04:20;;;;;;;;;;;;;;;14.39;54.22;98534.28;67603;1281;1017341;-73
2023/12/29 09:07:23;;;;;;;;;;;;;;;14.53;53.41;98531.58;67585;1281;1016379;-73
2023/12/29 09:10:26;;;;;;;;;;;;;;;14.61;53.53;98532.89;67640;1281;1016446;-73
2023/12/29 09:13:28;;;;;;;;;;;;;;;14.55;53.33;98532.61;67617;1281;1016478;-73
2023/12/29 09:16:31;;;;;;;;;;;;;;;14.64;53.51;98530.52;67615;1281;1016448;-73
2023/12/29 09:19:34;;;;;;;;;;;;;;;14.72;53.10;98531.25;67636;1281;1016543;-73
2023/12/29 09:22:36;;;;;;;;;;;;;;;14.62;53.97;98530.19;65142;1281;5324452;-72
2023/12/29 09:25:47;;;;;;;;;;;;;;;14.59;54.07;98529.52;67618;1281;1016653;-70
2023/12/29 09:28:50;;;;;;;;;;;;;;;14.68;53.42;98529.84;67635;1281;1016210;-72
2023/12/29 09:31:52;;;;;;;;;;;;;;;14.84;53.58;98533.98;67615;1281;1018608;-72
2023/12/29 09:34:55;;;;;;;;;;;;;;;15.02;53.31;98530.86;67603;1281;1016688;-73
2023/12/29 09:37:58;;;;;;;;;;;;;;;15.03;52.81;98529.24;67635;1281;1016209;-71
2023/12/29 09:41:01;;;;;;;;;;;;;;;15.16;52.75;98518.85;67579;1281;1015778;-71
2023/12/29 09:44:04;;;;;;;;;;;;;;;15.26;52.48;98515.17;67606;1281;1016450;-72
2023/12/29 09:47:06;;;;;;;;;;;;;;;15.32;51.96;98506.01;67626;1281;1018220;-73
2023/12/29 09:50:09;;;;;;;;;;;;;;;15.42;51.50;98506.95;67620;1281;1017062;-72
2023/12/29 09:53:12;;;;;;;;;;;;;;;15.62;51.10;98510.87;67576;1281;1016488;-71
2023/12/29 09:56:15;;;;;;;;;;;;;;;15.74;51.41;98511.90;67653;1281;1016282;-73
2023/12/29 09:59:17;;;;;;;;;;;;;;;15.91;50.88;98504.14;67577;1281;1016505;-72
2023/12/29 10:02:20;;;;;;;;;;;;;;;15.96;51.22;98508.31;67632;1281;1016242;-71
2023/12/29 10:05:23;;;;;;;;;;;;;;;15.97;50.69;98500.55;67632;1281;1016868;-73
2023/12/29 10:08:25;;;;;;;;;;;;;;;15.91;50.65;98497.42;67605;1281;1016194;-69
2023/12/29 10:11:28;;;;;;;;;;;;;;;16.01;50.62;98495.30;67606;1281;1016454;-70
2023/12/29 10:14:31;;;;;;;;;;;;;;;16.11;50.50;98492.45;67638;1281;1015938;-72
2023/12/29 10:17:33;;;;;;;;;;;;;;;16.01;50.58;98493.95;67620;1281;1016321;-73
2023/12/29 10:20:36;;;;;;;;;;;;;;;16.02;50.06;98498.23;67589;1281;1015985;-73
2023/12/29 10:23:38;;;;;;;;;;;;;;;15.97;50.09;98499.86;67623;1281;1016356;-70
2023/12/29 10:26:41;;;;;;;;;;;;;;;16.16;50.21;98503.85;67619;1281;1016172;-67
2023/12/29 10:29:43;;;;;;;;;;;;;;;16.15;49.04;98507.14;67582;1281;1016160;-73
2023/12/29 10:32:46;;;;;;;;;;;;;;;16.24;49.36;98504.76;67617;1281;1016462;-73
2023/12/29 10:35:48;;;;;;;;;;;;;;;16.40;49.21;98496.59;67638;1281;1017234;-69
2023/12/29 10:38:51;;;;;;;;;;;;;;;16.41;48.41;98487.30;67600;1281;1016425;-72
2023/12/29 10:41:54;;;;;;;;;;;;;;;16.57;49.15;98479.50;67616;1281;1020049;-73
2023/12/29 10:44:57;;;;;;;;;;;;;;;16.71;48.15;98475.42;67612;1281;1016483;-72
2023/12/29 10:47:59;;;;;;;;;;;;;;;16.76;47.98;98469.88;67601;1281;1015842;-67
2023/12/29 10:51:03;;;;;;;;;;;;;;;16.77;47.84;98471.04;67601;1281;1016504;-72
2023/12/29 10:54:06;;;;;;;;;;;;;;;16.74;48.00;98466.02;67601;1281;1016300;-71
2023/12/29 10:57:09;;;;;;;;;;;;;;;16.85;47.90;98467.09;67611;1281;1016132;-70
2023/12/29 11:00:13;;;;;;;;;;;;;;;16.96;47.67;98468.27;67597;1281;1016390;-72
2023/12/29 11:03:16;;;;;;;;;;;;;;;17.04;47.48;98470.31;67561;1281;1016487;-73
2023/12/29 11:06:21;;;;;;;;;;;;;;;17.20;47.72;98463.20;67605;1281;1016338;-71
2023/12/29 11:09:23;;;;;;;;;;;;;;;17.30;46.86;98465.80;67586;1280;1018337;-73
2023/12/29 11:12:26;;;;;;;;;;;;;;;17.28;46.28;98461.23;67590;1281;1017910;-68
2023/12/29 11:15:28;;;;;;;;;;;;;;;16.96;46.54;98471.39;67613;1281;1016486;-72
2023/12/29 11:18:31;;;;;;;;;;;;;;;16.93;46.47;98459.48;67630;1281;1016256;-72
2023/12/29 11:21:34;;;;;;;;;;;;;;;16.95;46.48;98457.23;67583;1281;1016485;-73
2023/12/29 11:24:36;;;;;;;;;;;;;;;17.18;46.49;98459.98;67586;1281;1017336;-69
2023/12/29 11:27:39;;;;;;;;;;;;;;;17.03;45.88;98454.73;67629;1281;1016430;-72
2023/12/29 11:30:41;;;;;;;;;;;;;;;17.19;46.60;98447.90;67609;1281;1016155;-69
2023/12/29 11:33:44;;;;;;;;;;;;;;;17.26;45.86;98445.05;67610;1281;1018838;-73
2023/12/29 11:36:47;;;;;;;;;;;;;;;17.22;45.58;98447.11;67596;1281;1016206;-70
2023/12/29 11:39:50;;;;;;;;;;;;;;;17.20;45.79;98448.35;67631;1281;1016481;-71
2023/12/29 11:42:53;;;;;;;;;;;;;;;17.09;44.99;98436.61;67631;1281;1017483;-73
2023/12/29 11:45:55;;;;;;;;;;;;;;;17.02;45.09;98435.94;67641;1281;1016531;-72
2023/12/29 11:48:58;;;;;;;;;;;;;;;16.94;45.65;98434.34;67620;1281;1016390;-73
2023/12/29 11:52:01;;;;;;;;;;;;;;;16.87;45.31;98420.34;67600;1281;1016310;-66
2023/12/29 11:55:03;;;;;;;;;;;;;;;16.81;45.41;98425.22;67608;1281;1017207;-70
2023/12/29 11:58:06;;;;;;;;;;;;;;;16.83;45.36;98424.92;67594;1281;1016288;-72
2023/12/29 12:01:09;;;;;;;;;;;;;;;16.87;45.22;98429.46;67655;1281;1016424;-70
2023/12/29 12:04:11;;;;;;;;;;;;;;;16.92;45.02;98422.20;67623;1281;1016449;-69
2023/12/29 12:07:14;;;;;;;;;;;;;;;16.91;44.99;98429.83;67598;1281;1017228;-71
2023/12/29 12:10:16;;;;;;;;;;;;;;;17.03;45.32;98430.69;67581;1281;1016253;-72
2023/12/29 12:13:19;;;;;;;;;;;;;;;16.93;44.52;98434.96;67588;1281;1016165;-70
2023/12/29 12:16:22;;;;;;;;;;;;;;;17.03;44.54;98425.77;67597;1281;1016433;-70
2023/12/29 12:19:27;;;;;;;;;;;;;;;16.91;44.98;98415.71;67600;1281;1016390;-73
2023/12/29 12:22:29;;;;;;;;;;;;;;;16.80;44.74;98409.61;67640;1281;1016327;-73
2023/12/29 12:25:34;;;;;;;;;;;;;;;16.81;44.80;98413.13;67632;1281;1016498;-68
2023/12/29 12:28:37;;;;;;;;;;;;;;;16.81;44.74;98403.73;67624;1281;1016426;-71
2023/12/29 12:31:39;;;;;;;;;;;;;;;16.65;44.93;98405.16;67639;1281;1016956;-73
2023/12/29 12:34:42;;;;;;;;;;;;;;;16.73;45.18;98401.14;67553;1281;1016023;-71
2023/12/29 12:37:45;;;;;;;;;;;;;;;16.67;45.70;98400.48;67632;1281;1017007;-69
2023/12/29 12:40:47;;;;;;;;;;;;;;;16.63;45.54;98400.29;67617;1281;1016459;-73
2023/12/29 12:43:50;;;;;;;;;;;;;;;16.71;45.61;98398.96;67633;1281;1016483;-69
2023/12/29 12:46:53;;;;;;;;;;;;;;;16.73;45.71;98405.89;67558;1281;1016405;-73
2023/12/29 12:49:56;;;;;;;;;;;;;;;16.71;45.88;98402.02;67604;1281;1016355;-66
2023/12/29 12:52:59;;;;;;;;;;;;;;;16.65;45.97;98397.80;67602;1281;1016446;-70
2023/12/29 12:56:03;;;;;;;;;;;;;;;16.55;46.21;98402.59;67601;1281;1016414;-72
2023/12/29 12:59:05;;;;;;;;;;;;;;;16.56;46.20;98399.17;67629;1281;1016362;-71
2023/12/29 13:02:08;;;;;;;;;;;;;;;16.46;46.29;98404.66;67652;1281;1016385;-72
2023/12/29 13:05:11;;;;;;;;;;;;;;;16.40;46.09;98406.10;67594;1281;1016216;-73
2023/12/29 13:08:14;;;;;;;;;;;;;;;16.34;46.22;98408.74;67614;1281;1016135;-69
2023/12/29 13:11:17;;;;;;;;;;;;;;;16.22;46.30;98406.49;67561;1281;1017394;-73
2023/12/29 13:14:20;;;;;;;;;;;;;;;16.20;46.41;98401.58;67654;1281;1016084;-72
2023/12/29 13:17:23;;;;;;;;;;;;;;;16.21;46.42;98409.00;67592;1281;1016498;-69
2023/12/29 13:20:25;;;;;;;;;;;;;;;16.30;46.57;98410.16;67616;1281;1016485;-71
2023/12/29 13:23:28;;;;;;;;;;;;;;;16.19;46.82;98410.66;67618;1281;1016402;-73
2023/12/29 13:26:30;;;;;;;;;;;;;;;16.27;46.71;98412.50;67604;1281;1016476;-73
2023/12/29 13:29:33;;;;;;;;;;;;;;;16.28;46.87;98412.27;67593;1281;1016028;-73
2023/12/29 13:32:38;;;;;;;;;;;;;;;16.33;46.67;98411.70;67627;1281;1016169;-73
2023/12/29 13:35:41;;;;;;;;;;;;;;;16.37;46.75;98417.46;67581;1281;1018056;-68
2023/12/29 13:38:47;;;;;;;;;;;;;;;16.30;46.78;98422.17;67596;1281;1016159;-72
2023/12/29 13:41:49;;;;;;;;;;;;;;;16.30;46.89;98420.59;67611;1281;1016510;-71
2023/12/29 13:44:52;;;;;;;;;;;;;;;16.22;46.91;98422.59;67583;1281;1018828;-68
2023/12/29 13:47:55;;;;;;;;;;;;;;;16.05;47.29;98419.70;67605;1281;1016423;-69
2023/12/29 13:50:57;;;;;;;;;;;;;;;15.87;47.88;98423.92;67586;1281;1016399;-69
2023/12/29 13:54:00;;;;;;;;;;;;;;;15.81;48.08;98422.30;67643;1281;1016243;-73
2023/12/29 13:57:03;;;;;;;;;;;;;;;15.77;48.01;98431.98;67590;1281;1016356;-72
2023/12/29 14:00:05;;;;;;;;;;;;;;;15.72;48.30;98428.38;67608;1281;1016993;-70
2023/12/29 14:03:08;;;;;;;;;;;;;;;15.68;48.28;98427.85;67600;1281;1016474;-73
2023/12/29 14:06:11;;;;;;;;;;;;;;;15.66;48.32;98423.63;67578;1281;1016600;-69
2023/12/29 14:09:14;;;;;;;;;;;;;;;15.65;48.23;98430.93;67637;1281;1016177;-67
2023/12/29 14:12:17;;;;;;;;;;;;;;;15.54;48.29;98440.33;67586;1281;1016494;-71
2023/12/29 14:15:20;;;;;;;;;;;;;;;15.49;48.57;98436.20;67630;1281;1015864;-71
2023/12/29 14:18:23;;;;;;;;;;;;;;;15.44;48.90;98440.71;67588;1281;1016395;-69
2023/12/29 14:21:25;;;;;;;;;;;;;;;15.39;48.87;98442.02;67624;1281;1016384;-69
2023/12/29 14:24:28;;;;;;;;;;;;;;;15.42;48.76;98446.34;67624;1281;1016473;-72
2023/12/29 14:27:31;;;;;;;;;;;;;;;15.32;48.89;98451.95;67615;1281;1019622;-70
2023/12/29 14:30:33;;;;;;;;;;;;;;;15.30;49.02;98454.90;67591;1281;1016153;-67
2023/12/29 14:33:36;;;;;;;;;;;;;;;15.39;48.93;98456.23;67628;1281;1016301;-72
2023/12/29 14:36:39;;;;;;;;;;;;;;;15.35;48.98;98449.74;67615;1281;1016378;-71
2023/12/29 14:39:41;;;;;;;;;;;;;;;15.45;48.73;98455.59;67578;1281;1016584;-68
2023/12/29 14:42:44;;;;;;;;;;;;;;;15.39;48.85;98456.04;67583;1281;1016106;-70
2023/12/29 14:45:46;;;;;;;;;;;;;;;15.36;48.89;98460.38;67631;1281;1016602;-67
2023/12/29 14:48:49;;;;;;;;;;;;;;;15.27;49.02;98459.40;67607;1281;1016451;-73
2023/12/29 14:51:53;;;;;;;;;;;;;;;15.26;49.12;98455.05;67572;1281;1016478;-71
2023/12/29 14:54:56;;;;;;;;;;;;;;;15.14;49.03;98456.45;67603;1281;1016678;-70
2023/12/29 14:57:58;;;;;;;;;;;;;;;15.00;49.34;98454.30;67624;1281;1016275;-65
2023/12/29 15:01:01;;;;;;;;;;;;;;;14.92;49.49;98455.68;67612;1281;1016245;-71
2023/12/29 15:04:04;;;;;;;;;;;;;;;14.79;49.65;98450.80;67578;1281;1016490;-71
2023/12/29 15:07:06;;;;;;;;;;;;;;;14.72;49.87;98453.87;67628;1281;1016717;-72
2023/12/29 15:10:09;;;;;;;;;;;;;;;14.70;49.94;98453.33;67611;1281;1016449;-72
2023/12/29 15:13:12;;;;;;;;;;;;;;;14.63;50.18;98453.17;67596;1281;1017366;-70
2023/12/29 15:16:14;;;;;;;;;;;;;;;14.58;50.29;98456.74;67631;1281;1016295;-72
2023/12/29 15:19:17;;;;;;;;;;;;;;;14.65;50.02;98458.32;67626;1281;1016465;-72
2023/12/29 15:22:21;;;;;;;;;;;;;;;14.49;50.38;98450.94;67583;1281;1016410;-74
2023/12/29 15:25:25;;;;;;;;;;;;;;;14.47;50.84;98451.89;67575;1281;1015885;-69
2023/12/29 15:28:29;;;;;;;;;;;;;;;14.31;51.15;98453.20;67636;1281;1016811;-73